sensor_id;sensor_type;location;lat;lon;timestamp;temperature;humidity
5027;DHT22;2532;52.480;13.354;2022-07-21T00:01:37;29.40;45.40
5027;DHT22;2532;52.480;13.354;2022-07-21T00:04:04;29.40;45.40
5027;DHT22;2532;52.480;13.354;2022-07-21T00:06:31;29.40;45.50
5027;DHT22;2532;52.480;13.354;2022-07-21T00:08:57;29.30;45.60
5027;DHT22;2532;52.480;13.354;2022-07-21T00:11:24;29.30;45.10
5027;DHT22;2532;52.480;13.354;2022-07-21T00:13:51;29.30;45.80
5027;DHT22;2532;52.480;13.354;2022-07-21T00:16:18;29.30;45.40
5027;DHT22;2532;52.480;13.354;2022-07-21T00:18:46;29.20;45.60
5027;DHT22;2532;52.480;13.354;2022-07-21T00:21:13;29.20;45.20
5027;DHT22;2532;52.480;13.354;2022-07-21T00:23:40;29.20;45.40
5027;DHT22;2532;52.480;13.354;2022-07-21T00:26:07;29.10;45.50
5027;DHT22;2532;52.480;13.354;2022-07-21T00:28:33;29.10;45.40
5027;DHT22;2532;52.480;13.354;2022-07-21T00:31:00;29.10;45.70
5027;DHT22;2532;52.480;13.354;2022-07-21T00:33:27;29.10;45.80
5027;DHT22;2532;52.480;13.354;2022-07-21T00:35:55;29.10;46.00
5027;DHT22;2532;52.480;13.354;2022-07-21T00:38:22;29.00;45.70
5027;DHT22;2532;52.480;13.354;2022-07-21T00:40:49;29.00;46.10
5027;DHT22;2532;52.480;13.354;2022-07-21T00:43:16;29.00;46.00
5027;DHT22;2532;52.480;13.354;2022-07-21T00:45:43;29.00;46.40
5027;DHT22;2532;52.480;13.354;2022-07-21T00:48:10;29.00;46.40
5027;DHT22;2532;52.480;13.354;2022-07-21T00:50:37;28.90;46.40
5027;DHT22;2532;52.480;13.354;2022-07-21T00:53:05;28.90;46.60
5027;DHT22;2532;52.480;13.354;2022-07-21T00:55:32;28.90;46.30
5027;DHT22;2532;52.480;13.354;2022-07-21T00:57:59;28.90;46.30
5027;DHT22;2532;52.480;13.354;2022-07-21T01:00:28;28.90;46.50
5027;DHT22;2532;52.480;13.354;2022-07-21T01:02:56;28.90;46.50
5027;DHT22;2532;52.480;13.354;2022-07-21T01:05:23;28.90;47.00
5027;DHT22;2532;52.480;13.354;2022-07-21T01:07:52;28.90;47.00
5027;DHT22;2532;52.480;13.354;2022-07-21T01:10:22;28.90;46.70
5027;DHT22;2532;52.480;13.354;2022-07-21T01:12:50;28.90;46.60
5027;DHT22;2532;52.480;13.354;2022-07-21T01:15:18;28.90;46.60
5027;DHT22;2532;52.480;13.354;2022-07-21T01:17:46;28.90;46.70
5027;DHT22;2532;52.480;13.354;2022-07-21T01:20:15;28.80;46.40
5027;DHT22;2532;52.480;13.354;2022-07-21T01:22:46;28.80;46.40
5027;DHT22;2532;52.480;13.354;2022-07-21T01:25:13;28.80;46.40
5027;DHT22;2532;52.480;13.354;2022-07-21T01:27:41;28.70;46.20
5027;DHT22;2532;52.480;13.354;2022-07-21T01:30:09;28.70;46.30
5027;DHT22;2532;52.480;13.354;2022-07-21T01:32:37;28.60;46.30
5027;DHT22;2532;52.480;13.354;2022-07-21T01:35:06;28.60;46.40
5027;DHT22;2532;52.480;13.354;2022-07-21T01:37:36;28.50;46.40
5027;DHT22;2532;52.480;13.354;2022-07-21T01:40:06;28.50;46.50
5027;DHT22;2532;52.480;13.354;2022-07-21T01:42:51;28.50;46.60
5027;DHT22;2532;52.480;13.354;2022-07-21T01:45:18;28.50;46.80
5027;DHT22;2532;52.480;13.354;2022-07-21T01:47:45;28.40;46.80
5027;DHT22;2532;52.480;13.354;2022-07-21T01:50:12;28.40;46.80
5027;DHT22;2532;52.480;13.354;2022-07-21T01:52:39;28.40;46.80
5027;DHT22;2532;52.480;13.354;2022-07-21T01:55:08;28.40;46.90
5027;DHT22;2532;52.480;13.354;2022-07-21T01:57:35;28.40;47.60
5027;DHT22;2532;52.480;13.354;2022-07-21T02:00:03;28.30;47.70
5027;DHT22;2532;52.480;13.354;2022-07-21T02:02:30;28.30;48.00
5027;DHT22;2532;52.480;13.354;2022-07-21T02:04:57;28.30;47.30
5027;DHT22;2532;52.480;13.354;2022-07-21T02:07:23;28.30;47.20
5027;DHT22;2532;52.480;13.354;2022-07-21T02:09:50;28.30;47.10
5027;DHT22;2532;52.480;13.354;2022-07-21T02:12:18;28.30;47.10
5027;DHT22;2532;52.480;13.354;2022-07-21T02:14:45;28.40;47.30
5027;DHT22;2532;52.480;13.354;2022-07-21T02:17:12;28.30;47.70
5027;DHT22;2532;52.480;13.354;2022-07-21T02:19:39;28.30;47.60
5027;DHT22;2532;52.480;13.354;2022-07-21T02:22:06;28.30;47.60
5027;DHT22;2532;52.480;13.354;2022-07-21T02:24:32;28.30;48.00
5027;DHT22;2532;52.480;13.354;2022-07-21T02:27:00;28.30;48.00
5027;DHT22;2532;52.480;13.354;2022-07-21T02:29:28;28.30;47.80
5027;DHT22;2532;52.480;13.354;2022-07-21T02:31:55;28.30;47.90
5027;DHT22;2532;52.480;13.354;2022-07-21T02:34:22;28.30;48.00
5027;DHT22;2532;52.480;13.354;2022-07-21T02:36:49;28.30;47.90
5027;DHT22;2532;52.480;13.354;2022-07-21T02:39:15;28.30;47.90
5027;DHT22;2532;52.480;13.354;2022-07-21T02:41:42;28.30;47.70
5027;DHT22;2532;52.480;13.354;2022-07-21T02:44:09;28.30;47.70
5027;DHT22;2532;52.480;13.354;2022-07-21T02:46:37;28.20;47.70
5027;DHT22;2532;52.480;13.354;2022-07-21T02:49:04;28.20;47.70
5027;DHT22;2532;52.480;13.354;2022-07-21T02:51:31;28.20;47.90
5027;DHT22;2532;52.480;13.354;2022-07-21T02:53:58;28.10;47.70
5027;DHT22;2532;52.480;13.354;2022-07-21T02:56:25;28.10;48.40
5027;DHT22;2532;52.480;13.354;2022-07-21T02:58:52;28.10;48.00
5027;DHT22;2532;52.480;13.354;2022-07-21T03:01:18;28.00;48.70
5027;DHT22;2532;52.480;13.354;2022-07-21T03:03:47;28.10;48.50
5027;DHT22;2532;52.480;13.354;2022-07-21T03:06:14;28.10;48.20
5027;DHT22;2532;52.480;13.354;2022-07-21T03:08:41;28.10;48.20
5027;DHT22;2532;52.480;13.354;2022-07-21T03:11:08;28.00;48.60
5027;DHT22;2532;52.480;13.354;2022-07-21T03:13:34;28.00;48.10
5027;DHT22;2532;52.480;13.354;2022-07-21T03:16:01;28.00;48.20
5027;DHT22;2532;52.480;13.354;2022-07-21T03:18:28;28.00;49.00
5027;DHT22;2532;52.480;13.354;2022-07-21T03:20:57;28.00;48.20
5027;DHT22;2532;52.480;13.354;2022-07-21T03:23:24;28.00;48.20
5027;DHT22;2532;52.480;13.354;2022-07-21T03:25:51;28.00;48.40
5027;DHT22;2532;52.480;13.354;2022-07-21T03:28:18;27.90;48.40
5027;DHT22;2532;52.480;13.354;2022-07-21T03:30:45;27.80;48.70
5027;DHT22;2532;52.480;13.354;2022-07-21T03:33:12;27.80;48.70
5027;DHT22;2532;52.480;13.354;2022-07-21T03:35:38;27.70;48.80
5027;DHT22;2532;52.480;13.354;2022-07-21T03:38:07;27.60;48.90
5027;DHT22;2532;52.480;13.354;2022-07-21T03:40:36;27.60;49.20
5027;DHT22;2532;52.480;13.354;2022-07-21T03:43:05;27.50;49.20
5027;DHT22;2532;52.480;13.354;2022-07-21T03:45:34;27.40;49.30
5027;DHT22;2532;52.480;13.354;2022-07-21T03:48:02;27.40;49.40
5027;DHT22;2532;52.480;13.354;2022-07-21T03:50:30;27.30;49.50
5027;DHT22;2532;52.480;13.354;2022-07-21T03:52:57;27.30;49.70
5027;DHT22;2532;52.480;13.354;2022-07-21T03:55:25;27.20;49.60
5027;DHT22;2532;52.480;13.354;2022-07-21T03:57:54;27.20;49.70
5027;DHT22;2532;52.480;13.354;2022-07-21T04:00:24;27.20;49.90
5027;DHT22;2532;52.480;13.354;2022-07-21T04:02:51;27.20;49.90
5027;DHT22;2532;52.480;13.354;2022-07-21T04:05:19;27.20;49.90
5027;DHT22;2532;52.480;13.354;2022-07-21T04:07:47;27.20;50.20
5027;DHT22;2532;52.480;13.354;2022-07-21T04:10:18;27.20;50.30
5027;DHT22;2532;52.480;13.354;2022-07-21T04:12:47;27.10;50.30
5027;DHT22;2532;52.480;13.354;2022-07-21T04:15:14;27.10;50.60
5027;DHT22;2532;52.480;13.354;2022-07-21T04:17:41;27.10;50.60
5027;DHT22;2532;52.480;13.354;2022-07-21T04:20:09;27.00;50.70
5027;DHT22;2532;52.480;13.354;2022-07-21T04:22:37;27.00;50.60
5027;DHT22;2532;52.480;13.354;2022-07-21T04:25:06;27.00;50.90
5027;DHT22;2532;52.480;13.354;2022-07-21T04:27:33;27.00;50.90
5027;DHT22;2532;52.480;13.354;2022-07-21T04:30:03;26.90;51.00
5027;DHT22;2532;52.480;13.354;2022-07-21T04:32:31;26.90;51.20
5027;DHT22;2532;52.480;13.354;2022-07-21T04:34:58;26.90;51.40
5027;DHT22;2532;52.480;13.354;2022-07-21T04:37:25;26.90;51.20
5027;DHT22;2532;52.480;13.354;2022-07-21T04:39:52;26.90;51.30
5027;DHT22;2532;52.480;13.354;2022-07-21T04:42:19;26.90;51.10
5027;DHT22;2532;52.480;13.354;2022-07-21T04:44:46;26.90;51.00
5027;DHT22;2532;52.480;13.354;2022-07-21T04:47:14;26.90;51.20
5027;DHT22;2532;52.480;13.354;2022-07-21T04:49:41;26.80;51.10
5027;DHT22;2532;52.480;13.354;2022-07-21T04:52:10;26.90;50.90
5027;DHT22;2532;52.480;13.354;2022-07-21T04:54:36;26.80;51.10
5027;DHT22;2532;52.480;13.354;2022-07-21T04:57:03;26.90;51.20
5027;DHT22;2532;52.480;13.354;2022-07-21T04:59:32;26.90;51.30
5027;DHT22;2532;52.480;13.354;2022-07-21T05:01:59;26.90;51.60
5027;DHT22;2532;52.480;13.354;2022-07-21T05:04:28;26.80;52.00
5027;DHT22;2532;52.480;13.354;2022-07-21T05:06:54;26.90;52.30
5027;DHT22;2532;52.480;13.354;2022-07-21T05:09:21;26.80;52.80
5027;DHT22;2532;52.480;13.354;2022-07-21T05:11:48;26.80;53.20
5027;DHT22;2532;52.480;13.354;2022-07-21T05:14:15;26.80;53.80
5027;DHT22;2532;52.480;13.354;2022-07-21T05:16:42;26.70;54.20
5027;DHT22;2532;52.480;13.354;2022-07-21T05:19:09;26.60;54.50
5027;DHT22;2532;52.480;13.354;2022-07-21T05:21:37;26.50;55.00
5027;DHT22;2532;52.480;13.354;2022-07-21T05:24:05;26.40;55.30
5027;DHT22;2532;52.480;13.354;2022-07-21T05:26:32;26.40;55.70
5027;DHT22;2532;52.480;13.354;2022-07-21T05:28:58;26.30;56.00
5027;DHT22;2532;52.480;13.354;2022-07-21T05:31:25;26.30;56.30
5027;DHT22;2532;52.480;13.354;2022-07-21T05:33:52;26.20;56.40
5027;DHT22;2532;52.480;13.354;2022-07-21T05:36:19;26.20;56.60
5027;DHT22;2532;52.480;13.354;2022-07-21T05:38:47;26.10;56.80
5027;DHT22;2532;52.480;13.354;2022-07-21T05:41:14;26.10;57.00
5027;DHT22;2532;52.480;13.354;2022-07-21T05:43:41;26.10;57.10
5027;DHT22;2532;52.480;13.354;2022-07-21T05:46:08;26.10;57.10
5027;DHT22;2532;52.480;13.354;2022-07-21T05:48:35;26.00;57.00
5027;DHT22;2532;52.480;13.354;2022-07-21T05:51:02;26.00;57.20
5027;DHT22;2532;52.480;13.354;2022-07-21T05:53:29;26.00;57.40
5027;DHT22;2532;52.480;13.354;2022-07-21T05:55:57;25.90;57.60
5027;DHT22;2532;52.480;13.354;2022-07-21T05:58:24;25.90;57.70
5027;DHT22;2532;52.480;13.354;2022-07-21T06:00:51;25.90;57.90
5027;DHT22;2532;52.480;13.354;2022-07-21T06:03:32;25.80;58.00
5027;DHT22;2532;52.480;13.354;2022-07-21T06:05:59;25.70;58.20
5027;DHT22;2532;52.480;13.354;2022-07-21T06:08:26;25.80;58.50
5027;DHT22;2532;52.480;13.354;2022-07-21T06:10:53;25.80;58.50
5027;DHT22;2532;52.480;13.354;2022-07-21T06:13:21;25.90;58.30
5027;DHT22;2532;52.480;13.354;2022-07-21T06:15:48;25.90;58.30
5027;DHT22;2532;52.480;13.354;2022-07-21T06:18:14;26.00;58.20
5027;DHT22;2532;52.480;13.354;2022-07-21T06:20:41;26.00;58.20
5027;DHT22;2532;52.480;13.354;2022-07-21T06:23:08;26.00;58.50
5027;DHT22;2532;52.480;13.354;2022-07-21T06:25:35;26.00;58.40
5027;DHT22;2532;52.480;13.354;2022-07-21T06:28:02;26.00;58.60
5027;DHT22;2532;52.480;13.354;2022-07-21T06:30:30;26.10;58.60
5027;DHT22;2532;52.480;13.354;2022-07-21T06:32:58;26.00;58.70
5027;DHT22;2532;52.480;13.354;2022-07-21T06:35:25;26.00;58.90
5027;DHT22;2532;52.480;13.354;2022-07-21T06:37:52;25.90;58.90
5027;DHT22;2532;52.480;13.354;2022-07-21T06:40:19;25.90;59.00
5027;DHT22;2532;52.480;13.354;2022-07-21T06:42:45;25.90;59.10
5027;DHT22;2532;52.480;13.354;2022-07-21T06:45:12;25.90;59.10
5027;DHT22;2532;52.480;13.354;2022-07-21T06:47:41;25.90;59.10
5027;DHT22;2532;52.480;13.354;2022-07-21T06:50:08;25.90;59.30
5027;DHT22;2532;52.480;13.354;2022-07-21T06:52:35;25.90;59.40
5027;DHT22;2532;52.480;13.354;2022-07-21T06:55:03;25.90;59.20
5027;DHT22;2532;52.480;13.354;2022-07-21T06:57:30;26.00;59.20
5027;DHT22;2532;52.480;13.354;2022-07-21T06:59:57;26.00;58.90
5027;DHT22;2532;52.480;13.354;2022-07-21T07:02:24;26.10;59.20
5027;DHT22;2532;52.480;13.354;2022-07-21T07:04:52;26.10;59.10
5027;DHT22;2532;52.480;13.354;2022-07-21T07:07:19;26.00;59.10
5027;DHT22;2532;52.480;13.354;2022-07-21T07:09:46;26.00;59.20
5027;DHT22;2532;52.480;13.354;2022-07-21T07:12:13;26.00;59.30
5027;DHT22;2532;52.480;13.354;2022-07-21T07:14:39;26.10;59.20
5027;DHT22;2532;52.480;13.354;2022-07-21T07:17:06;26.20;59.20
5027;DHT22;2532;52.480;13.354;2022-07-21T07:19:33;26.30;59.20
5027;DHT22;2532;52.480;13.354;2022-07-21T07:22:01;26.30;59.10
5027;DHT22;2532;52.480;13.354;2022-07-21T07:24:28;26.30;59.20
5027;DHT22;2532;52.480;13.354;2022-07-21T07:26:55;26.40;59.10
5027;DHT22;2532;52.480;13.354;2022-07-21T07:29:22;26.40;59.20
5027;DHT22;2532;52.480;13.354;2022-07-21T07:31:49;26.40;59.00
5027;DHT22;2532;52.480;13.354;2022-07-21T07:34:16;26.60;59.00
5027;DHT22;2532;52.480;13.354;2022-07-21T07:36:42;26.60;59.00
5027;DHT22;2532;52.480;13.354;2022-07-21T07:39:11;26.70;58.90
5027;DHT22;2532;52.480;13.354;2022-07-21T07:41:38;26.70;58.90
5027;DHT22;2532;52.480;13.354;2022-07-21T07:44:05;26.90;58.80
5027;DHT22;2532;52.480;13.354;2022-07-21T07:46:32;27.00;58.40
5027;DHT22;2532;52.480;13.354;2022-07-21T07:48:59;27.10;58.40
5027;DHT22;2532;52.480;13.354;2022-07-21T07:51:26;27.20;58.30
5027;DHT22;2532;52.480;13.354;2022-07-21T07:53:52;27.30;57.90
5027;DHT22;2532;52.480;13.354;2022-07-21T07:56:21;27.40;57.80
5027;DHT22;2532;52.480;13.354;2022-07-21T07:58:47;27.50;57.80
5027;DHT22;2532;52.480;13.354;2022-07-21T08:01:14;27.60;57.50
5027;DHT22;2532;52.480;13.354;2022-07-21T08:03:42;27.70;57.50
5027;DHT22;2532;52.480;13.354;2022-07-21T08:06:09;27.70;57.30
5027;DHT22;2532;52.480;13.354;2022-07-21T08:08:35;27.80;57.50
5027;DHT22;2532;52.480;13.354;2022-07-21T08:11:02;27.90;57.10
5027;DHT22;2532;52.480;13.354;2022-07-21T08:13:31;27.90;56.80
5027;DHT22;2532;52.480;13.354;2022-07-21T08:15:58;28.00;56.80
5027;DHT22;2532;52.480;13.354;2022-07-21T08:18:25;28.00;56.90
5027;DHT22;2532;52.480;13.354;2022-07-21T08:20:52;28.10;56.80
5027;DHT22;2532;52.480;13.354;2022-07-21T08:23:19;28.10;56.60
5027;DHT22;2532;52.480;13.354;2022-07-21T08:25:46;28.20;56.60
5027;DHT22;2532;52.480;13.354;2022-07-21T08:28:13;28.20;56.30
5027;DHT22;2532;52.480;13.354;2022-07-21T08:30:41;28.20;56.30
5027;DHT22;2532;52.480;13.354;2022-07-21T08:33:08;28.30;56.50
5027;DHT22;2532;52.480;13.354;2022-07-21T08:35:35;28.40;56.30
5027;DHT22;2532;52.480;13.354;2022-07-21T08:38:04;28.40;56.30
5027;DHT22;2532;52.480;13.354;2022-07-21T08:40:33;28.50;56.20
5027;DHT22;2532;52.480;13.354;2022-07-21T08:43:00;28.50;56.20
5027;DHT22;2532;52.480;13.354;2022-07-21T08:48:51;28.70;55.70
5027;DHT22;2532;52.480;13.354;2022-07-21T08:51:18;28.80;55.70
5027;DHT22;2532;52.480;13.354;2022-07-21T08:53:45;28.90;54.90
5027;DHT22;2532;52.480;13.354;2022-07-21T08:56:12;29.00;54.50
5027;DHT22;2532;52.480;13.354;2022-07-21T08:58:39;29.10;54.50
5027;DHT22;2532;52.480;13.354;2022-07-21T09:01:06;29.10;54.10
5027;DHT22;2532;52.480;13.354;2022-07-21T09:03:33;29.20;54.30
5027;DHT22;2532;52.480;13.354;2022-07-21T09:06:05;29.20;54.00
5027;DHT22;2532;52.480;13.354;2022-07-21T09:08:34;29.30;53.70
5027;DHT22;2532;52.480;13.354;2022-07-21T09:11:11;29.40;53.60
5027;DHT22;2532;52.480;13.354;2022-07-21T09:13:38;29.50;53.10
5027;DHT22;2532;52.480;13.354;2022-07-21T09:16:06;29.50;53.00
5027;DHT22;2532;52.480;13.354;2022-07-21T09:18:33;29.50;53.20
5027;DHT22;2532;52.480;13.354;2022-07-21T09:21:01;29.60;53.10
5027;DHT22;2532;52.480;13.354;2022-07-21T09:23:28;29.60;52.80
5027;DHT22;2532;52.480;13.354;2022-07-21T09:25:56;29.70;52.70
5027;DHT22;2532;52.480;13.354;2022-07-21T09:28:26;29.80;52.60
5027;DHT22;2532;52.480;13.354;2022-07-21T09:30:56;29.80;52.70
5027;DHT22;2532;52.480;13.354;2022-07-21T09:33:30;29.90;52.70
5027;DHT22;2532;52.480;13.354;2022-07-21T09:36:02;29.90;52.40
5027;DHT22;2532;52.480;13.354;2022-07-21T09:38:31;30.00;52.00
5027;DHT22;2532;52.480;13.354;2022-07-21T09:41:06;30.10;51.70
5027;DHT22;2532;52.480;13.354;2022-07-21T09:43:36;30.20;51.40
5027;DHT22;2532;52.480;13.354;2022-07-21T09:46:09;30.20;51.30
5027;DHT22;2532;52.480;13.354;2022-07-21T09:48:38;30.30;50.90
5027;DHT22;2532;52.480;13.354;2022-07-21T09:51:29;30.30;50.80
5027;DHT22;2532;52.480;13.354;2022-07-21T09:54:01;30.40;50.80
5027;DHT22;2532;52.480;13.354;2022-07-21T09:56:30;30.50;50.30
5027;DHT22;2532;52.480;13.354;2022-07-21T09:59:05;30.50;50.20
5027;DHT22;2532;52.480;13.354;2022-07-21T10:01:32;30.50;50.30
5027;DHT22;2532;52.480;13.354;2022-07-21T10:04:01;30.60;50.30
5027;DHT22;2532;52.480;13.354;2022-07-21T10:06:34;30.70;50.20
5027;DHT22;2532;52.480;13.354;2022-07-21T10:09:05;30.80;50.00
5027;DHT22;2532;52.480;13.354;2022-07-21T10:11:33;30.80;49.90
5027;DHT22;2532;52.480;13.354;2022-07-21T10:14:00;30.80;49.90
5027;DHT22;2532;52.480;13.354;2022-07-21T10:16:28;30.90;49.70
5027;DHT22;2532;52.480;13.354;2022-07-21T10:19:00;30.90;49.70
5027;DHT22;2532;52.480;13.354;2022-07-21T10:21:36;30.90;49.90
5027;DHT22;2532;52.480;13.354;2022-07-21T10:24:06;30.90;49.80
5027;DHT22;2532;52.480;13.354;2022-07-21T10:26:35;30.80;49.40
5027;DHT22;2532;52.480;13.354;2022-07-21T10:29:02;30.70;49.70
5027;DHT22;2532;52.480;13.354;2022-07-21T10:31:29;30.70;50.20
5027;DHT22;2532;52.480;13.354;2022-07-21T10:33:58;30.60;50.40
5027;DHT22;2532;52.480;13.354;2022-07-21T10:36:44;30.60;50.70
5027;DHT22;2532;52.480;13.354;2022-07-21T10:39:30;30.60;50.10
5027;DHT22;2532;52.480;13.354;2022-07-21T10:41:57;30.60;50.20
5027;DHT22;2532;52.480;13.354;2022-07-21T10:44:39;30.50;50.10
5027;DHT22;2532;52.480;13.354;2022-07-21T10:47:08;30.50;50.40
5027;DHT22;2532;52.480;13.354;2022-07-21T10:49:53;30.50;50.30
5027;DHT22;2532;52.480;13.354;2022-07-21T10:52:58;30.50;50.30
5027;DHT22;2532;52.480;13.354;2022-07-21T10:55:27;30.50;50.40
5027;DHT22;2532;52.480;13.354;2022-07-21T10:58:15;30.50;50.60
5027;DHT22;2532;52.480;13.354;2022-07-21T11:00:48;30.70;50.20
5027;DHT22;2532;52.480;13.354;2022-07-21T11:03:20;30.80;49.90
5027;DHT22;2532;52.480;13.354;2022-07-21T11:06:19;30.80;49.80
5027;DHT22;2532;52.480;13.354;2022-07-21T11:08:50;30.80;49.60
5027;DHT22;2532;52.480;13.354;2022-07-21T11:11:19;30.80;49.40
5027;DHT22;2532;52.480;13.354;2022-07-21T11:14:01;30.80;49.50
5027;DHT22;2532;52.480;13.354;2022-07-21T11:16:58;30.80;49.40
5027;DHT22;2532;52.480;13.354;2022-07-21T11:19:32;30.70;49.50
5027;DHT22;2532;52.480;13.354;2022-07-21T11:22:03;30.80;49.40
5027;DHT22;2532;52.480;13.354;2022-07-21T11:24:32;30.80;49.60
5027;DHT22;2532;52.480;13.354;2022-07-21T11:27:03;30.80;49.40
5027;DHT22;2532;52.480;13.354;2022-07-21T11:29:31;30.90;49.40
5027;DHT22;2532;52.480;13.354;2022-07-21T11:31:58;31.00;49.30
5027;DHT22;2532;52.480;13.354;2022-07-21T11:34:37;31.00;49.40
5027;DHT22;2532;52.480;13.354;2022-07-21T11:37:05;31.00;49.50
5027;DHT22;2532;52.480;13.354;2022-07-21T11:39:33;31.00;49.60
5027;DHT22;2532;52.480;13.354;2022-07-21T11:42:02;31.00;50.40
5027;DHT22;2532;52.480;13.354;2022-07-21T11:44:29;30.90;49.60
5027;DHT22;2532;52.480;13.354;2022-07-21T11:46:58;30.90;49.80
5027;DHT22;2532;52.480;13.354;2022-07-21T11:49:25;30.90;50.00
5027;DHT22;2532;52.480;13.354;2022-07-21T11:51:54;30.80;50.20
5027;DHT22;2532;52.480;13.354;2022-07-21T11:54:24;30.80;50.50
5027;DHT22;2532;52.480;13.354;2022-07-21T11:56:54;30.80;50.60
5027;DHT22;2532;52.480;13.354;2022-07-21T11:59:22;30.70;50.50
5027;DHT22;2532;52.480;13.354;2022-07-21T12:01:51;30.70;50.40
5027;DHT22;2532;52.480;13.354;2022-07-21T12:04:39;30.60;50.40
5027;DHT22;2532;52.480;13.354;2022-07-21T12:07:13;30.50;50.80
5027;DHT22;2532;52.480;13.354;2022-07-21T12:09:41;30.50;50.60
5027;DHT22;2532;52.480;13.354;2022-07-21T12:12:12;30.40;51.00
5027;DHT22;2532;52.480;13.354;2022-07-21T12:14:43;30.30;51.00
5027;DHT22;2532;52.480;13.354;2022-07-21T12:17:11;30.20;51.10
5027;DHT22;2532;52.480;13.354;2022-07-21T12:19:39;30.00;51.40
5027;DHT22;2532;52.480;13.354;2022-07-21T12:22:06;29.90;51.90
5027;DHT22;2532;52.480;13.354;2022-07-21T12:24:50;29.80;52.50
5027;DHT22;2532;52.480;13.354;2022-07-21T12:27:20;29.70;52.60
5027;DHT22;2532;52.480;13.354;2022-07-21T12:29:47;29.70;53.40
5027;DHT22;2532;52.480;13.354;2022-07-21T12:32:15;29.60;53.20
5027;DHT22;2532;52.480;13.354;2022-07-21T12:35:01;29.50;53.80
5027;DHT22;2532;52.480;13.354;2022-07-21T12:37:56;29.40;54.40
5027;DHT22;2532;52.480;13.354;2022-07-21T12:40:24;29.30;55.20
5027;DHT22;2532;52.480;13.354;2022-07-21T12:43:06;29.20;56.30
5027;DHT22;2532;52.480;13.354;2022-07-21T12:45:44;29.10;56.60
5027;DHT22;2532;52.480;13.354;2022-07-21T12:48:14;29.00;56.90
5027;DHT22;2532;52.480;13.354;2022-07-21T12:50:41;28.90;57.10
5027;DHT22;2532;52.480;13.354;2022-07-21T12:53:09;28.80;57.80
5027;DHT22;2532;52.480;13.354;2022-07-21T12:55:36;28.70;58.10
5027;DHT22;2532;52.480;13.354;2022-07-21T12:58:05;28.70;58.80
5027;DHT22;2532;52.480;13.354;2022-07-21T13:00:32;28.60;58.80
5027;DHT22;2532;52.480;13.354;2022-07-21T13:02:59;28.50;59.10
5027;DHT22;2532;52.480;13.354;2022-07-21T13:05:26;28.40;61.10
5027;DHT22;2532;52.480;13.354;2022-07-21T13:07:53;28.40;63.30
5027;DHT22;2532;52.480;13.354;2022-07-21T13:10:20;28.30;64.70
5027;DHT22;2532;52.480;13.354;2022-07-21T13:12:47;28.30;64.30
5027;DHT22;2532;52.480;13.354;2022-07-21T13:15:16;28.20;64.50
5027;DHT22;2532;52.480;13.354;2022-07-21T13:17:43;28.00;67.10
5027;DHT22;2532;52.480;13.354;2022-07-21T13:20:11;28.00;67.70
5027;DHT22;2532;52.480;13.354;2022-07-21T13:22:38;27.90;69.50
5027;DHT22;2532;52.480;13.354;2022-07-21T13:25:06;27.80;70.00
5027;DHT22;2532;52.480;13.354;2022-07-21T13:27:33;27.70;72.40
5027;DHT22;2532;52.480;13.354;2022-07-21T13:30:01;27.60;73.60
5027;DHT22;2532;52.480;13.354;2022-07-21T13:32:29;27.40;74.90
5027;DHT22;2532;52.480;13.354;2022-07-21T13:34:59;27.30;76.10
5027;DHT22;2532;52.480;13.354;2022-07-21T13:37:26;27.20;78.10
5027;DHT22;2532;52.480;13.354;2022-07-21T13:39:53;27.20;79.70
5027;DHT22;2532;52.480;13.354;2022-07-21T13:42:19;27.10;80.90
5027;DHT22;2532;52.480;13.354;2022-07-21T13:44:46;27.10;81.20
5027;DHT22;2532;52.480;13.354;2022-07-21T13:47:13;27.10;82.30
5027;DHT22;2532;52.480;13.354;2022-07-21T13:49:41;27.00;82.40
5027;DHT22;2532;52.480;13.354;2022-07-21T13:52:08;27.00;83.00
5027;DHT22;2532;52.480;13.354;2022-07-21T13:54:35;27.00;83.20
5027;DHT22;2532;52.480;13.354;2022-07-21T13:57:02;27.10;83.40
5027;DHT22;2532;52.480;13.354;2022-07-21T13:59:29;27.10;83.90
5027;DHT22;2532;52.480;13.354;2022-07-21T14:01:56;27.10;82.70
5027;DHT22;2532;52.480;13.354;2022-07-21T14:04:23;27.20;84.50
5027;DHT22;2532;52.480;13.354;2022-07-21T14:06:51;27.40;84.80
5027;DHT22;2532;52.480;13.354;2022-07-21T14:09:19;27.50;84.90
5027;DHT22;2532;52.480;13.354;2022-07-21T14:11:46;27.60;85.10
5027;DHT22;2532;52.480;13.354;2022-07-21T14:14:14;27.80;83.40
5027;DHT22;2532;52.480;13.354;2022-07-21T14:16:46;28.00;82.90
5027;DHT22;2532;52.480;13.354;2022-07-21T14:19:13;28.10;80.30
5027;DHT22;2532;52.480;13.354;2022-07-21T14:21:40;28.20;79.50
5027;DHT22;2532;52.480;13.354;2022-07-21T14:24:08;28.10;78.90
5027;DHT22;2532;52.480;13.354;2022-07-21T14:26:52;28.20;78.90
5027;DHT22;2532;52.480;13.354;2022-07-21T14:29:19;28.20;79.10
5027;DHT22;2532;52.480;13.354;2022-07-21T14:31:46;28.30;78.70
5027;DHT22;2532;52.480;13.354;2022-07-21T14:34:15;28.30;78.40
5027;DHT22;2532;52.480;13.354;2022-07-21T14:36:42;28.40;78.20
5027;DHT22;2532;52.480;13.354;2022-07-21T14:39:10;28.50;77.20
5027;DHT22;2532;52.480;13.354;2022-07-21T14:41:37;28.50;77.00
5027;DHT22;2532;52.480;13.354;2022-07-21T14:44:04;28.60;77.00
5027;DHT22;2532;52.480;13.354;2022-07-21T14:46:31;28.70;76.10
5027;DHT22;2532;52.480;13.354;2022-07-21T14:48:58;28.80;75.60
5027;DHT22;2532;52.480;13.354;2022-07-21T14:51:25;28.80;75.60
5027;DHT22;2532;52.480;13.354;2022-07-21T14:53:51;28.90;74.70
5027;DHT22;2532;52.480;13.354;2022-07-21T14:56:20;29.00;75.40
5027;DHT22;2532;52.480;13.354;2022-07-21T14:58:46;29.20;74.20
5027;DHT22;2532;52.480;13.354;2022-07-21T15:01:13;29.40;73.50
5027;DHT22;2532;52.480;13.354;2022-07-21T15:03:40;29.50;72.80
5027;DHT22;2532;52.480;13.354;2022-07-21T15:06:08;29.60;71.60
5027;DHT22;2532;52.480;13.354;2022-07-21T15:08:35;29.50;70.90
5027;DHT22;2532;52.480;13.354;2022-07-21T15:11:02;29.50;70.90
5027;DHT22;2532;52.480;13.354;2022-07-21T15:13:30;29.30;70.70
5027;DHT22;2532;52.480;13.354;2022-07-21T15:15:57;29.30;71.10
5027;DHT22;2532;52.480;13.354;2022-07-21T15:18:24;29.10;71.40
5027;DHT22;2532;52.480;13.354;2022-07-21T15:20:51;29.00;71.60
5027;DHT22;2532;52.480;13.354;2022-07-21T15:23:18;29.00;71.80
5027;DHT22;2532;52.480;13.354;2022-07-21T15:25:45;28.90;71.70
5027;DHT22;2532;52.480;13.354;2022-07-21T15:28:11;28.90;71.80
5027;DHT22;2532;52.480;13.354;2022-07-21T15:30:40;28.80;71.70
5027;DHT22;2532;52.480;13.354;2022-07-21T15:33:06;28.80;72.30
5027;DHT22;2532;52.480;13.354;2022-07-21T15:35:33;28.80;72.30
5027;DHT22;2532;52.480;13.354;2022-07-21T15:38:00;28.80;72.80
5027;DHT22;2532;52.480;13.354;2022-07-21T15:40:27;28.90;72.60
5027;DHT22;2532;52.480;13.354;2022-07-21T15:42:54;29.10;72.60
5027;DHT22;2532;52.480;13.354;2022-07-21T15:45:20;29.20;71.90
5027;DHT22;2532;52.480;13.354;2022-07-21T15:47:49;29.30;71.60
5027;DHT22;2532;52.480;13.354;2022-07-21T15:50:15;29.30;71.60
5027;DHT22;2532;52.480;13.354;2022-07-21T15:52:42;29.30;71.70
5027;DHT22;2532;52.480;13.354;2022-07-21T15:55:10;29.20;71.10
5027;DHT22;2532;52.480;13.354;2022-07-21T15:57:37;29.30;71.60